createdAt,value
2024-02-24T00:02:26.289Z,4.09
2024-02-24T00:07:13.659Z,4.07
2024-02-24T00:12:04.032Z,3.94
2024-02-24T00:16:51.182Z,4.05
2024-02-24T00:21:38.421Z,3.77
2024-02-24T00:26:25.685Z,4.03
2024-02-24T00:31:15.947Z,4.04
2024-02-24T00:36:03.499Z,3.94
2024-02-24T00:40:50.712Z,4.07
2024-02-24T00:45:37.995Z,4.06
2024-02-24T00:50:27.877Z,3.97
2024-02-24T00:55:15.054Z,4.01
2024-02-24T01:00:02.205Z,3.97
2024-02-24T01:04:49.410Z,3.90
2024-02-24T01:09:39.370Z,3.27
2024-02-24T01:14:26.720Z,3.43
2024-02-24T01:19:14.114Z,3.10
2024-02-24T01:24:01.376Z,3.48
2024-02-24T01:28:51.554Z,3.13
2024-02-24T01:33:38.933Z,3.75
2024-02-24T01:38:26.197Z,3.55
2024-02-24T01:43:27.321Z,3.56
2024-02-24T01:48:17.600Z,3.67
2024-02-24T01:53:05.187Z,3.73
2024-02-24T01:57:54.909Z,3.69
2024-02-24T02:02:42.301Z,3.43
2024-02-24T02:07:32.508Z,3.72
2024-02-24T02:12:20.111Z,3.72
2024-02-24T02:17:07.505Z,3.39
2024-02-24T02:21:57.120Z,3.55
2024-02-24T02:26:47.188Z,3.65
2024-02-24T02:31:34.425Z,3.66
2024-02-24T02:36:21.946Z,3.47
2024-02-24T02:41:09.190Z,3.63
2024-02-24T02:45:59.042Z,3.56
2024-02-24T02:50:46.357Z,3.36
2024-02-24T02:55:33.583Z,3.38
2024-02-24T03:00:21.376Z,3.50
2024-02-24T03:05:11.509Z,3.30
2024-02-24T03:10:00.268Z,3.53
2024-02-24T03:14:47.633Z,3.53
2024-02-24T03:19:35.363Z,3.47
2024-02-24T03:24:25.326Z,2.95
2024-02-24T03:29:12.610Z,3.29
2024-02-24T03:33:59.843Z,3.50
2024-02-24T03:38:47.282Z,3.49
2024-02-24T03:43:37.359Z,3.49
2024-02-24T03:48:24.622Z,3.44
2024-02-24T03:53:11.897Z,3.46
2024-02-24T03:57:59.044Z,3.48
2024-02-24T04:02:49.114Z,3.47
2024-02-24T04:07:36.493Z,3.50
2024-02-24T04:12:23.778Z,2.95
2024-02-24T04:17:11.114Z,2.90
2024-02-24T04:22:00.899Z,3.02
2024-02-24T04:26:48.238Z,3.35
2024-02-24T04:31:35.434Z,3.24
2024-02-24T04:36:22.591Z,3.33
2024-02-24T04:41:12.544Z,3.41
2024-02-24T04:45:59.811Z,3.50
2024-02-24T04:50:46.959Z,3.41
2024-02-24T04:55:34.141Z,3.16
2024-02-24T05:00:24.079Z,3.38
2024-02-24T05:05:11.372Z,3.48
2024-02-24T05:09:58.652Z,3.34
2024-02-24T05:14:48.782Z,2.79
2024-02-24T05:19:48.055Z,3.35
2024-02-24T05:24:35.189Z,3.47
2024-02-24T05:29:22.365Z,3.44
2024-02-24T05:34:09.684Z,3.33
2024-02-24T05:38:59.505Z,3.50
2024-02-24T05:43:46.619Z,3.48
2024-02-24T05:48:33.840Z,3.38
2024-02-24T05:53:21.333Z,3.45
2024-02-24T05:58:11.162Z,3.57
2024-02-24T06:03:01.333Z,3.47
2024-02-24T06:07:48.397Z,3.52
2024-02-24T06:12:35.568Z,3.64
2024-02-24T06:17:25.576Z,3.51
2024-02-24T06:22:12.822Z,3.46
2024-02-24T06:27:00.020Z,3.73
2024-02-24T06:31:50.889Z,3.61
2024-02-24T06:36:40.850Z,3.27
2024-02-24T06:41:28.248Z,3.34
2024-02-24T06:46:15.595Z,3.72
2024-02-24T06:51:04.366Z,3.44
2024-02-24T06:55:54.274Z,3.80
2024-02-24T07:00:41.506Z,3.59
2024-02-24T07:05:28.806Z,3.98
2024-02-24T07:10:16.269Z,3.88
2024-02-24T07:15:07.360Z,4.00
2024-02-24T07:19:54.894Z,3.98
2024-02-24T07:24:42.772Z,3.49
2024-02-24T07:29:30.032Z,3.44
2024-02-24T07:34:19.945Z,3.98
2024-02-24T07:39:07.335Z,4.20
2024-02-24T07:43:54.465Z,3.91
2024-02-24T07:48:41.729Z,4.26
2024-02-24T07:53:31.522Z,4.26
2024-02-24T07:58:18.664Z,4.18
2024-02-24T08:03:06.026Z,4.26
2024-02-24T08:07:53.197Z,4.43
2024-02-24T08:12:43.134Z,4.05
2024-02-24T08:17:30.587Z,4.11
2024-02-24T08:22:17.849Z,4.49
2024-02-24T08:27:05.721Z,4.66
2024-02-24T08:31:55.378Z,4.79
2024-02-24T08:36:42.733Z,4.79
2024-02-24T08:41:30.400Z,4.67
2024-02-24T08:46:17.676Z,4.48
2024-02-24T08:51:07.958Z,4.71
2024-02-24T08:55:55.237Z,5.21
2024-02-24T09:00:42.400Z,5.03
2024-02-24T09:05:29.776Z,4.86
2024-02-24T09:10:19.776Z,5.15
2024-02-24T09:15:08.032Z,5.04
2024-02-24T09:19:55.170Z,5.26
2024-02-24T09:24:42.242Z,5.34
2024-02-24T09:29:32.032Z,5.39
2024-02-24T09:34:19.470Z,5.44
2024-02-24T09:39:06.701Z,5.39
2024-02-24T09:43:54.088Z,4.98
2024-02-24T09:48:47.345Z,5.19
2024-02-24T09:53:34.574Z,4.45
2024-02-24T09:58:22.684Z,5.31
2024-02-24T10:03:10.555Z,4.86
2024-02-24T10:08:00.664Z,5.20
2024-02-24T10:12:58.465Z,5.10
2024-02-24T10:17:45.719Z,5.12
2024-02-24T10:22:33.136Z,5.00
2024-02-24T10:27:23.215Z,5.17
2024-02-24T10:32:10.767Z,5.00
2024-02-24T10:36:59.992Z,5.22
2024-02-24T10:41:48.299Z,5.13
2024-02-24T10:46:38.300Z,4.98
2024-02-24T10:51:28.714Z,5.04
2024-02-24T10:56:19.246Z,5.12
2024-02-24T11:01:09.677Z,4.64
2024-02-24T11:06:03.307Z,5.04
2024-02-24T11:10:54.044Z,5.03
2024-02-24T11:15:41.180Z,4.72
2024-02-24T11:20:55.616Z,5.01
2024-02-24T11:25:46.880Z,5.19
2024-02-24T11:30:47.148Z,5.20
2024-02-24T11:35:34.425Z,5.28
2024-02-24T11:40:25.148Z,5.40
2024-02-24T11:45:16.824Z,5.44
2024-02-24T11:50:04.879Z,5.30
2024-02-24T11:54:52.273Z,5.39
2024-02-24T11:59:39.507Z,5.29
2024-02-24T12:04:32.982Z,5.34
2024-02-24T12:09:21.151Z,5.01
2024-02-24T12:14:08.796Z,4.86
2024-02-24T12:18:58.913Z,5.24
2024-02-24T12:23:48.988Z,5.55
2024-02-24T12:28:36.364Z,5.47
2024-02-24T12:33:25.021Z,5.24
2024-02-24T12:38:33.254Z,4.69
2024-02-24T12:43:43.914Z,4.43
2024-02-24T12:48:31.650Z,5.22
2024-02-24T12:53:21.871Z,5.52
2024-02-24T12:58:09.192Z,5.56
2024-02-24T13:03:01.578Z,5.26
2024-02-24T13:07:50.986Z,5.36
2024-02-24T13:12:39.026Z,5.34
2024-02-24T13:17:26.532Z,5.66
2024-02-24T13:22:21.105Z,5.74
2024-02-24T13:27:09.499Z,5.61
2024-02-24T13:32:06.502Z,5.88
2024-02-24T13:36:53.724Z,5.57
2024-02-24T13:41:46.105Z,6.24
2024-02-24T13:46:33.596Z,6.28
2024-02-24T13:51:21.001Z,6.21
2024-02-24T13:56:08.478Z,6.41
2024-02-24T14:01:00.545Z,6.83
2024-02-24T14:05:50.517Z,6.48
2024-02-24T14:10:37.886Z,6.88
2024-02-24T14:15:25.126Z,6.68
2024-02-24T14:20:22.870Z,6.91
2024-02-24T14:25:13.065Z,6.89
2024-02-24T14:30:00.395Z,6.68
2024-02-24T14:34:57.639Z,6.73
2024-02-24T14:39:50.991Z,6.53
2024-02-24T14:44:42.675Z,6.43
2024-02-24T14:49:36.402Z,6.06
2024-02-24T14:54:26.448Z,5.88
2024-02-24T14:59:20.996Z,6.34
2024-02-24T15:04:11.397Z,6.44
2024-02-24T15:08:58.704Z,6.75
2024-02-24T15:13:46.031Z,6.66
2024-02-24T15:18:36.344Z,6.24
2024-02-24T15:23:23.810Z,6.45
2024-02-24T15:28:15.615Z,6.74
2024-02-24T15:33:03.105Z,6.60
2024-02-24T15:37:53.216Z,6.32
2024-02-24T15:42:40.457Z,6.86
2024-02-24T15:47:27.816Z,6.19
2024-02-24T15:52:33.181Z,6.78
2024-02-24T15:57:26.021Z,6.76
2024-02-24T16:02:13.473Z,6.56
2024-02-24T16:07:00.824Z,6.22
2024-02-24T16:11:48.325Z,6.72
2024-02-24T16:16:38.431Z,6.58
2024-02-24T16:21:25.576Z,5.90
2024-02-24T16:26:14.939Z,6.39
2024-02-24T16:31:02.207Z,6.52
2024-02-24T16:35:54.780Z,6.29
2024-02-24T16:40:42.577Z,6.39
2024-02-24T16:45:34.144Z,6.18
2024-02-24T16:50:26.376Z,5.65
2024-02-24T16:55:16.492Z,5.97
2024-02-24T17:00:06.177Z,6.12
2024-02-24T17:04:56.180Z,5.92
2024-02-24T17:09:43.524Z,5.27
2024-02-24T17:14:35.475Z,5.11
2024-02-24T17:19:23.102Z,5.61
2024-02-24T17:24:10.635Z,5.26
2024-02-24T17:28:57.872Z,5.28
2024-02-24T17:33:47.940Z,5.57
2024-02-24T17:38:35.504Z,5.70
2024-02-24T17:43:38.228Z,5.76
2024-02-24T17:48:25.756Z,5.79
2024-02-24T17:53:15.759Z,5.63
2024-02-24T17:58:03.124Z,5.88
2024-02-24T18:02:50.645Z,4.94
2024-02-24T18:07:38.810Z,5.51
2024-02-24T18:12:29.023Z,5.93
2024-02-24T18:17:18.372Z,5.68
2024-02-24T18:22:05.625Z,5.66
2024-02-24T18:26:59.627Z,5.23
2024-02-24T18:31:51.860Z,5.69
2024-02-24T18:36:41.861Z,5.25
2024-02-24T18:41:29.818Z,5.79
2024-02-24T18:46:17.339Z,5.91
2024-02-24T18:51:07.645Z,5.68
2024-02-24T18:55:55.112Z,5.24
2024-02-24T19:00:54.084Z,5.93
2024-02-24T19:05:41.633Z,5.73
2024-02-24T19:10:31.800Z,5.50
2024-02-24T19:15:19.248Z,5.84
2024-02-24T19:20:09.688Z,5.81
2024-02-24T19:25:00.233Z,5.30
2024-02-24T19:30:12.737Z,5.73
2024-02-24T19:35:30.750Z,5.02
2024-02-24T21:26:22.682Z,5.52
2024-02-24T21:31:09.926Z,5.52
2024-02-24T21:35:57.318Z,5.40
2024-02-24T21:40:47.848Z,5.05
2024-02-24T21:45:49.194Z,5.70
2024-02-24T21:50:36.559Z,5.70
2024-02-24T21:55:25.199Z,5.63
2024-02-24T22:00:15.703Z,5.37
2024-02-24T22:05:23.666Z,4.42
2024-02-24T22:10:12.104Z,5.56
2024-02-24T22:14:59.686Z,4.71
2024-02-24T22:19:46.993Z,5.47
2024-02-24T22:24:39.577Z,5.32
2024-02-24T22:29:26.771Z,5.19
2024-02-24T22:34:14.230Z,5.30
2024-02-24T22:39:01.696Z,4.72
2024-02-24T22:43:54.246Z,5.26
2024-02-24T22:48:41.525Z,5.26
2024-02-24T22:53:29.068Z,4.63
2024-02-24T22:58:19.712Z,5.37
2024-02-24T23:03:10.685Z,4.87
2024-02-24T23:07:57.963Z,5.19
2024-02-24T23:12:46.702Z,5.04
2024-02-24T23:17:34.055Z,5.32
2024-02-24T23:22:24.898Z,5.02
2024-02-24T23:27:12.268Z,4.70
2024-02-24T23:32:01.825Z,4.76
2024-02-24T23:36:49.061Z,5.20
2024-02-24T23:41:39.061Z,5.45
2024-02-24T23:46:26.350Z,4.88
2024-02-24T23:51:13.678Z,4.48
2024-02-24T23:56:00.842Z,4.85
